Time;durP1;ratioP1;P1;durP2;ratioP2;P2;SDS_P1;SDS_P2;PMS_P1;PMS_P2;Temp;Humidity;BMP_temperature;BMP_pressure;BME280_temperature;BME280_humidity;BME280_pressure;Samples;Min_cycle;Max_cycle;Signal;HPM_P1;HPM_P2
2022/03/27 00:01:34;;;;;;;19.20;10.03;;;;;;;7.74;100.00;102250.97;6334260;24;20104;-92
2022/03/27 00:05:08;;;;;;;20.40;12.07;;;;;;;7.65;100.00;102248.72;6323987;24;20312;-91
2022/03/27 00:08:16;;;;;;;21.35;12.95;;;;;;;7.65;100.00;102252.19;5968858;29;20051;-91
2022/03/27 00:11:28;;;;;;;25.77;13.38;;;;;;;7.58;100.00;102258.47;5954940;29;20639;-91
2022/03/27 00:15:19;;;;;;;22.50;12.55;;;;;;;7.52;100.00;102264.66;6592590;24;20029;31
2022/03/27 00:42:35;;;;;;;17.10;9.60;;;;;;;7.36;100.00;102245.56;7377394;23;20050;31
2022/03/27 02:56:15;;;;;;;19.92;10.45;;;;;;;6.66;100.00;102239.50;6973388;24;20049;-90
2022/03/27 02:59:22;;;;;;;25.27;10.95;;;;;;;6.64;100.00;102230.16;6124477;24;20122;-90
2022/03/27 03:02:29;;;;;;;19.77;11.18;;;;;;;6.69;100.00;102233.41;6004515;29;20101;-90
2022/03/27 06:33:33;;;;;;;26.55;11.35;;;;;;;6.57;100.00;102246.69;6592412;23;20069;-91
2022/03/27 06:36:46;;;;;;;25.75;11.60;;;;;;;6.58;100.00;102244.03;4022162;23;20358;31
2022/03/27 06:40:14;;;;;;;25.52;13.00;;;;;;;6.80;100.00;102246.72;6291859;23;20105;-93
2022/03/27 06:43:37;;;;;;;26.65;12.13;;;;;;;6.74;100.00;102254.66;6342016;24;20058;-92
2022/03/27 06:50:23;;;;;;;24.83;12.35;;;;;;;6.92;100.00;102253.16;6877567;24;20054;-92
2022/03/27 06:53:52;;;;;;;31.08;13.57;;;;;;;6.98;100.00;102255.53;6436246;23;20042;-92
2022/03/27 07:03:43;;;;;;;25.80;12.68;;;;;;;7.26;100.00;102265.66;6033966;29;20058;-92
2022/03/27 07:06:56;;;;;;;24.00;12.15;;;;;;;7.37;100.00;102256.69;6506290;24;20081;-92
2022/03/27 07:10:05;;;;;;;28.15;12.63;;;;;;;7.41;100.00;102258.25;6056083;29;20046;-91
2022/03/27 07:13:09;;;;;;;26.98;13.20;;;;;;;7.50;100.00;102260.47;6045066;29;20074;-91
2022/03/27 07:16:26;;;;;;;25.48;13.23;;;;;;;7.63;100.00;102266.03;6028050;29;20118;-91
2022/03/27 07:19:28;;;;;;;30.88;12.68;;;;;;;7.71;100.00;102259.66;6018186;29;20098;-91
2022/03/27 07:22:30;;;;;;;24.40;12.55;;;;;;;7.75;100.00;102253.50;5998297;29;20038;-91
2022/03/27 07:25:35;;;;;;;24.05;12.32;;;;;;;7.81;100.00;102252.41;6009140;29;20057;-91
2022/03/27 07:28:37;;;;;;;22.92;11.55;;;;;;;7.90;100.00;102257.19;5988137;29;20048;-91
2022/03/27 07:31:39;;;;;;;23.85;12.65;;;;;;;7.98;100.00;102259.47;5998577;29;20050;-91
2022/03/27 07:34:41;;;;;;;25.00;12.30;;;;;;;8.08;100.00;102255.63;5992736;29;20563;-91
2022/03/27 07:37:44;;;;;;;18.60;10.55;;;;;;;8.19;100.00;102257.75;6008646;29;20073;-91
2022/03/27 07:40:47;;;;;;;18.17;9.38;;;;;;;8.30;100.00;102260.75;5995314;29;20051;-91
2022/03/27 07:43:53;;;;;;;18.25;9.68;;;;;;;8.38;100.00;102263.81;5958384;29;20038;-91
2022/03/27 07:46:58;;;;;;;15.55;8.13;;;;;;;8.44;100.00;102261.91;5963007;29;20066;-91
2022/03/27 07:50:01;;;;;;;14.95;7.82;;;;;;;8.49;100.00;102260.81;5960511;29;20054;-91
2022/03/27 07:53:05;;;;;;;18.60;9.23;;;;;;;8.39;100.00;102265.53;5957462;29;20043;-91
2022/03/27 07:56:07;;;;;;;15.55;9.13;;;;;;;8.44;100.00;102262.75;5959643;29;20077;-91
2022/03/27 07:59:08;;;;;;;18.55;9.45;;;;;;;8.54;100.00;102263.22;5960621;29;20054;-91
2022/03/27 08:02:10;;;;;;;19.30;9.30;;;;;;;8.59;100.00;102272.44;5959531;29;20123;-92
2022/03/27 08:05:13;;;;;;;17.33;8.98;;;;;;;8.59;100.00;102269.84;5950896;29;20042;-91
2022/03/27 08:08:15;;;;;;;17.05;9.23;;;;;;;8.53;100.00;102266.72;5957587;29;20053;-91
2022/03/27 08:11:16;;;;;;;18.05;9.75;;;;;;;8.58;100.00;102272.50;5948046;29;20062;-91
2022/03/27 08:14:18;;;;;;;15.93;9.10;;;;;;;8.64;100.00;102285.13;5944041;29;20061;-91
2022/03/27 08:17:21;;;;;;;19.10;9.57;;;;;;;8.65;100.00;102279.09;5961344;29;20055;-91
2022/03/27 08:20:24;;;;;;;20.25;10.75;;;;;;;8.72;100.00;102277.06;5952552;29;20062;-91
2022/03/27 08:23:26;;;;;;;18.98;11.13;;;;;;;8.58;100.00;102281.09;5953240;29;20042;-91
2022/03/27 08:29:48;;;;;;;21.95;10.75;;;;;;;8.50;100.00;102275.41;5963418;29;20055;-91
2022/03/27 08:32:50;;;;;;;19.73;10.20;;;;;;;8.56;100.00;102277.72;5950672;29;21225;-91
2022/03/27 08:35:52;;;;;;;19.77;10.40;;;;;;;8.65;100.00;102275.69;5954808;29;20046;-91
2022/03/27 08:39:02;;;;;;;19.00;10.55;;;;;;;8.79;100.00;102278.47;5954620;29;20049;-91
2022/03/27 08:42:05;;;;;;;16.70;9.50;;;;;;;8.97;100.00;102285.44;5950071;29;20051;-91
2022/03/27 08:45:07;;;;;;;18.67;9.63;;;;;;;9.07;100.00;102293.63;5954087;29;20054;-91
2022/03/27 08:48:10;;;;;;;14.60;8.32;;;;;;;9.20;100.00;102291.34;5955327;29;20739;-92
2022/03/27 08:51:32;;;;;;;16.23;8.90;;;;;;;9.26;100.00;102294.47;5950782;29;20055;-91
2022/03/27 08:54:52;;;;;;;17.42;8.60;;;;;;;9.48;100.00;102301.25;5951263;29;20055;-92
2022/03/27 08:57:58;;;;;;;16.65;9.60;;;;;;;9.58;100.00;102305.09;5952523;29;20510;-91
2022/03/27 09:01:01;;;;;;;18.05;9.32;;;;;;;9.59;100.00;102300.75;5951989;29;20225;-91
2022/03/27 09:04:04;;;;;;;14.90;9.13;;;;;;;9.56;100.00;102293.97;5953869;29;20058;-91
2022/03/27 09:07:06;;;;;;;18.33;9.38;;;;;;;9.59;100.00;102295.59;5949034;29;20061;-91
2022/03/27 09:10:10;;;;;;;17.35;9.70;;;;;;;9.54;100.00;102306.16;5954895;29;20119;-91
2022/03/27 09:13:16;;;;;;;19.38;9.18;;;;;;;9.56;100.00;102304.31;5951790;29;20535;-91
2022/03/27 09:16:18;;;;;;;19.52;10.02;;;;;;;9.60;100.00;102299.84;5955032;29;20070;-91
2022/03/27 09:19:39;;;;;;;14.75;8.77;;;;;;;9.75;100.00;102300.91;5954621;29;20095;-91
2022/03/27 09:22:40;;;;;;;18.27;9.48;;;;;;;9.85;100.00;102295.22;5951094;29;20051;-91
2022/03/27 09:25:47;;;;;;;17.42;9.00;;;;;;;9.95;100.00;102297.38;5958008;29;20845;-92
2022/03/27 09:28:57;;;;;;;17.42;9.15;;;;;;;10.01;100.00;102297.91;5957040;29;20058;-91
2022/03/27 09:31:58;;;;;;;15.23;8.60;;;;;;;9.99;100.00;102302.31;5957101;29;20039;-92
2022/03/27 09:35:17;;;;;;;15.85;9.73;;;;;;;10.22;100.00;102293.44;5954852;29;20047;-92
2022/03/27 09:38:20;;;;;;;16.83;9.45;;;;;;;10.27;100.00;102286.28;5958883;29;20051;-91
2022/03/27 09:41:44;;;;;;;17.08;9.07;;;;;;;10.44;100.00;102290.66;5944900;29;20138;-92
2022/03/27 09:44:46;;;;;;;15.05;9.23;;;;;;;10.67;100.00;102294.66;5950751;29;20146;-91
2022/03/27 09:47:50;;;;;;;18.00;9.70;;;;;;;10.81;100.00;102298.28;5954591;29;20065;-91
2022/03/27 09:51:00;;;;;;;17.40;9.27;;;;;;;11.01;100.00;102302.47;5944296;29;20061;-92
2022/03/27 09:54:02;;;;;;;15.50;9.23;;;;;;;11.04;100.00;102297.13;5944937;29;20535;-91
2022/03/27 09:57:28;;;;;;;16.58;9.10;;;;;;;11.18;100.00;102294.66;5947470;29;20059;-91
2022/03/27 10:00:30;;;;;;;15.25;8.80;;;;;;;11.39;100.00;102285.69;5944363;29;20044;-91
2022/03/27 10:03:56;;;;;;;15.63;9.48;;;;;;;11.58;100.00;102274.34;5945693;29;20047;-92
2022/03/27 10:06:59;;;;;;;16.67;9.30;;;;;;;11.89;100.00;102277.84;5933280;29;20142;-91
2022/03/27 10:10:02;;;;;;;14.85;9.00;;;;;;;12.05;100.00;102276.06;5946910;29;20154;-91
2022/03/27 10:13:06;;;;;;;16.23;9.10;;;;;;;12.16;98.92;102270.25;5928275;29;20051;-91
2022/03/27 10:16:09;;;;;;;15.30;8.73;;;;;;;12.03;97.72;102262.31;5940094;29;20059;-91
2022/03/27 10:19:32;;;;;;;17.45;9.88;;;;;;;12.15;100.00;102264.22;5945549;29;20046;-92
2022/03/27 10:22:39;;;;;;;15.77;8.93;;;;;;;12.43;97.69;102252.22;5945467;29;20568;-92
2022/03/27 10:25:45;;;;;;;17.83;8.68;;;;;;;12.47;95.45;102256.28;5944253;29;20141;-92
2022/03/27 10:28:49;;;;;;;15.50;8.18;;;;;;;12.53;95.59;102248.16;5945889;29;20061;-92
2022/03/27 10:31:53;;;;;;;14.13;8.82;;;;;;;12.59;93.65;102246.94;5947274;29;20059;-92
2022/03/27 10:35:20;;;;;;;17.05;9.52;;;;;;;12.49;93.92;102239.69;5939494;29;20051;-91
2022/03/27 10:39:05;;;;;;;17.35;10.00;;;;;;;12.39;95.85;102240.34;5941027;29;20560;-91
2022/03/27 10:42:15;;;;;;;15.50;9.40;;;;;;;12.39;94.82;102235.13;5941691;29;20043;-92
2022/03/27 10:45:20;;;;;;;12.65;8.70;;;;;;;12.22;95.54;102231.78;5941895;29;20203;-91
2022/03/27 10:48:22;;;;;;;18.20;9.10;;;;;;;12.31;99.37;102238.19;5936916;29;20069;-91
2022/03/27 10:51:24;;;;;;;15.45;9.15;;;;;;;12.36;97.21;102241.34;5941477;29;20054;-91
2022/03/27 10:54:26;;;;;;;14.40;9.40;;;;;;;12.23;97.74;102232.63;5949562;29;20051;-92
2022/03/27 10:57:30;;;;;;;15.35;9.60;;;;;;;12.16;97.04;102241.69;5946305;29;20192;-91
2022/03/27 11:00:40;;;;;;;19.80;9.85;;;;;;;12.31;99.70;102240.78;5941903;29;20431;-91
2022/03/27 11:03:51;;;;;;;14.32;9.25;;;;;;;12.57;96.04;102233.19;5944268;29;20043;-91
2022/03/27 11:07:21;;;;;;;14.57;8.93;;;;;;;12.57;96.86;102233.19;5944004;29;20054;-92
2022/03/27 11:10:43;;;;;;;14.98;9.48;;;;;;;12.51;98.00;102231.81;5932902;29;20532;-91
2022/03/27 11:13:45;;;;;;;17.58;9.50;;;;;;;12.30;97.82;102223.56;5951202;29;20051;-92
2022/03/27 11:17:05;;;;;;;17.13;10.00;;;;;;;12.23;100.00;102219.63;5947027;29;20066;-91
2022/03/27 11:20:32;;;;;;;15.33;9.37;;;;;;;12.25;98.56;102218.63;5948305;29;20418;-92
2022/03/27 11:23:39;;;;;;;18.00;10.00;;;;;;;11.83;100.00;102217.56;5947612;29;20449;-91
2022/03/27 11:26:42;;;;;;;19.23;10.13;;;;;;;11.69;100.00;102206.28;5952796;29;20039;-91
2022/03/27 11:30:12;;;;;;;16.45;9.77;;;;;;;11.70;100.00;102211.41;5944955;29;20050;-91
2022/03/27 11:33:23;;;;;;;16.63;9.88;;;;;;;11.77;100.00;102202.31;5947557;29;20392;-91
2022/03/27 11:36:25;;;;;;;15.77;9.45;;;;;;;11.89;100.00;102200.81;5950620;29;20057;-91
2022/03/27 11:39:35;;;;;;;17.35;10.35;;;;;;;11.76;100.00;102192.88;5948024;29;20043;-91
2022/03/27 11:42:38;;;;;;;14.95;9.15;;;;;;;11.58;100.00;102186.16;5947083;29;20057;-91
2022/03/27 11:45:41;;;;;;;17.67;10.23;;;;;;;11.54;100.00;102189.84;5946196;29;20578;-91
2022/03/27 11:48:53;;;;;;;18.63;10.45;;;;;;;11.54;100.00;102179.47;5950075;29;20130;-91
2022/03/27 11:52:13;;;;;;;17.17;9.75;;;;;;;11.54;100.00;102169.09;5950461;29;20138;-91
2022/03/27 11:55:18;;;;;;;18.30;10.18;;;;;;;11.67;100.00;102169.22;5943860;29;20540;-91
2022/03/27 11:58:20;;;;;;;19.30;10.45;;;;;;;11.73;100.00;102153.31;5931635;29;20501;-91
2022/03/27 12:01:25;;;;;;;18.40;10.70;;;;;;;11.75;100.00;102156.63;5945271;29;20038;-91
2022/03/27 12:04:28;;;;;;;18.77;10.20;;;;;;;11.76;100.00;102153.13;5935784;29;20043;-91
2022/03/27 12:07:51;;;;;;;17.70;10.10;;;;;;;11.75;100.00;102156.63;5954911;29;20047;-91
2022/03/27 12:10:56;;;;;;;16.55;9.85;;;;;;;11.81;100.00;102151.09;5952409;29;20173;-91
2022/03/27 12:14:07;;;;;;;17.33;10.85;;;;;;;12.02;100.00;102154.22;5956726;29;20145;-92
2022/03/27 12:17:10;;;;;;;18.85;10.55;;;;;;;12.12;100.00;102144.13;5950186;29;20057;-91
2022/03/27 12:20:13;;;;;;;17.35;10.63;;;;;;;12.16;100.00;102146.47;5954603;29;20050;-91
2022/03/27 12:23:23;;;;;;;17.40;9.93;;;;;;;12.38;100.00;102140.00;5949978;29;20584;-91
2022/03/27 12:29:50;;;;;;;;;;;;;;;12.59;100.00;102130.88;5955936;29;20200;-91
2022/03/27 12:32:52;;;;;;;18.52;10.48;;;;;;;12.67;96.67;102127.78;5954753;29;19933;-91
2022/03/27 12:36:13;;;;;;;18.52;10.18;;;;;;;12.60;97.70;102127.34;5952318;29;20301;-91
2022/03/27 12:39:16;;;;;;;18.27;10.50;;;;;;;12.66;100.00;102123.53;5955848;29;20137;-91
2022/03/27 12:42:39;;;;;;;17.13;9.88;;;;;;;12.77;98.14;102120.25;5958854;29;20126;-91
2022/03/27 12:45:42;;;;;;;19.20;11.07;;;;;;;12.90;97.64;102119.41;5967720;29;20072;-91
2022/03/27 12:48:56;;;;;;;17.80;10.45;;;;;;;13.02;97.86;102111.75;5963717;29;20055;-91
2022/03/27 12:51:58;;;;;;;19.25;10.88;;;;;;;13.00;93.71;102106.66;5960381;29;20042;-91
2022/03/27 12:55:03;;;;;;;22.50;12.15;;;;;;;13.12;95.58;102108.47;5954744;29;20083;-91
2022/03/27 12:58:05;;;;;;;18.85;11.02;;;;;;;13.32;94.66;102106.38;5940429;29;20053;-91
2022/03/27 13:01:09;;;;;;;22.95;11.52;;;;;;;13.39;93.91;102096.41;5951576;29;20051;-91
2022/03/27 13:04:14;;;;;;;18.83;11.00;;;;;;;13.47;96.04;102089.78;5954112;29;20799;-91
2022/03/27 13:07:18;;;;;;;16.25;9.32;;;;;;;13.66;92.96;102084.16;5942927;29;20428;-91
2022/03/27 13:10:25;;;;;;;17.90;11.07;;;;;;;13.88;91.62;102091.34;5936154;29;20085;-91
2022/03/27 13:13:40;;;;;;;18.02;10.98;;;;;;;14.00;89.72;102087.09;5950840;29;20042;-91
2022/03/27 13:16:50;;;;;;;18.85;11.68;;;;;;;14.09;92.00;102085.63;5936540;29;20062;-91
2022/03/27 13:19:52;;;;;;;21.10;11.43;;;;;;;14.25;85.11;102083.63;5951395;29;21779;-91
2022/03/27 13:22:54;;;;;;;19.05;11.52;;;;;;;14.40;86.15;102079.94;5948763;29;20139;-91
2022/03/27 13:25:55;;;;;;;16.98;11.18;;;;;;;14.58;86.70;102066.59;5951560;29;20053;-90
2022/03/27 13:28:57;;;;;;;16.58;10.00;;;;;;;14.82;88.14;102064.81;5955539;29;20829;-91
2022/03/27 13:31:59;;;;;;;18.83;11.30;;;;;;;15.02;81.85;102060.75;5952781;29;20055;-92
2022/03/27 13:35:01;;;;;;;16.77;10.55;;;;;;;15.08;79.75;102049.91;5953520;29;20042;-91
2022/03/27 13:38:03;;;;;;;19.23;11.63;;;;;;;15.06;78.66;102045.75;5958534;29;20039;-91
2022/03/27 13:44:25;;;;;;;16.30;10.35;;;;;;;15.03;85.55;102040.72;5953517;29;20051;-91
2022/03/27 13:47:27;;;;;;;18.38;10.30;;;;;;;15.16;77.12;102038.91;5953307;29;20042;-91
2022/03/27 13:50:29;;;;;;;17.35;10.90;;;;;;;15.14;76.76;102035.56;5942253;29;20057;-92
2022/03/27 13:53:31;;;;;;;18.55;10.55;;;;;;;15.16;74.07;102033.69;5949460;29;20047;-92
2022/03/27 13:56:38;;;;;;;18.17;10.55;;;;;;;15.17;74.44;102026.69;5951271;29;20190;-92
2022/03/27 13:59:40;;;;;;;17.67;9.95;;;;;;;15.28;78.67;102024.94;5958515;29;20077;-92
2022/03/27 14:02:42;;;;;;;17.23;11.05;;;;;;;15.55;71.61;102029.00;5957214;29;20507;-92
2022/03/27 14:05:45;;;;;;;20.58;11.18;;;;;;;15.47;72.21;102026.97;5956700;29;20051;-92
2022/03/27 14:08:55;;;;;;;;;;;;;;;15.49;72.67;102026.88;5952651;29;20163;-92
2022/03/27 14:12:01;;;;;;;17.38;10.25;;;;;;;15.64;69.86;102032.69;5954612;29;19978;-92
2022/03/27 14:15:26;;;;;;;19.27;11.18;;;;;;;15.50;69.46;102025.91;5955105;29;20054;-93
2022/03/27 14:18:28;;;;;;;15.85;10.48;;;;;;;15.49;70.15;102021.66;5955254;29;20055;-92
2022/03/27 14:21:29;;;;;;;16.92;9.88;;;;;;;15.65;73.20;102023.91;5950149;29;20050;-92
2022/03/27 14:24:31;;;;;;;17.20;10.10;;;;;;;15.77;69.64;102016.97;5940013;29;20424;-91
2022/03/27 14:27:33;;;;;;;16.15;9.85;;;;;;;15.87;69.65;102012.69;5953347;29;20046;-92
2022/03/27 14:30:35;;;;;;;18.88;10.52;;;;;;;16.02;65.93;102014.09;5962154;29;20065;-91
2022/03/27 14:33:37;;;;;;;16.33;9.93;;;;;;;16.02;64.78;102014.09;5954929;29;20126;-91
2022/03/27 14:36:39;;;;;;;17.98;10.45;;;;;;;15.93;69.03;102009.63;5950860;29;20057;-91
2022/03/27 14:39:40;;;;;;;14.20;8.85;;;;;;;16.08;64.22;102005.78;5947616;29;20046;-91
2022/03/27 14:42:42;;;;;;;19.23;10.27;;;;;;;16.07;63.11;102005.91;5952194;29;20085;-91
2022/03/27 14:45:44;;;;;;;22.67;13.60;;;;;;;16.11;63.92;102010.78;5951675;29;20085;-91
2022/03/27 14:48:46;;;;;;;17.45;9.68;;;;;;;16.14;62.78;102007.91;5955720;29;20050;-91
2022/03/27 14:51:48;;;;;;;14.57;9.45;;;;;;;16.10;63.33;102003.91;5955169;29;20039;-91
2022/03/27 14:58:14;;;;;;;;;;;;;;;16.20;62.17;102001.38;5952756;29;20057;-91
2022/03/27 15:01:16;;;;;;;15.88;9.68;;;;;;;16.11;61.95;101999.50;5952883;29;19933;-91
2022/03/27 15:04:21;;;;;;;15.02;9.43;;;;;;;15.93;61.69;101994.75;5958486;29;20124;-91
2022/03/27 15:07:32;;;;;;;14.63;8.55;;;;;;;15.81;61.26;101989.66;5952431;29;20127;-90
2022/03/27 15:10:37;;;;;;;20.05;9.25;;;;;;;15.79;61.77;101984.56;5951657;29;20107;-90
2022/03/27 15:13:41;;;;;;;13.70;8.35;;;;;;;15.97;60.86;101982.28;5951653;29;20043;-91
2022/03/27 15:16:43;;;;;;;13.98;8.65;;;;;;;15.94;61.21;101979.91;5949477;29;20039;-90
2022/03/27 15:19:45;;;;;;;13.68;8.85;;;;;;;15.96;61.48;101988.47;5948242;29;20051;-91
2022/03/27 15:22:48;;;;;;;13.73;8.77;;;;;;;15.99;60.12;101982.16;5953011;29;20125;-91
2022/03/27 15:25:50;;;;;;;12.48;8.15;;;;;;;16.01;59.16;101981.09;5954819;29;20472;-91
2022/03/27 15:28:55;;;;;;;12.45;8.07;;;;;;;15.87;60.40;101979.56;5951275;29;20175;-91
2022/03/27 15:31:59;;;;;;;13.75;8.43;;;;;;;15.91;60.53;101977.56;5952247;29;20045;-91
2022/03/27 15:35:04;;;;;;;12.48;8.00;;;;;;;15.96;60.86;101977.19;5957204;29;20512;-91
2022/03/27 15:38:06;;;;;;;12.88;7.97;;;;;;;15.93;60.98;101970.44;5941918;29;20576;-91
2022/03/27 15:41:11;;;;;;;10.45;7.03;;;;;;;15.99;60.71;101971.72;5955843;29;20050;-92
2022/03/27 15:44:16;;;;;;;12.60;8.52;;;;;;;16.02;60.18;101964.47;5941371;29;20549;-91
2022/03/27 15:47:18;;;;;;;14.48;8.45;;;;;;;15.87;62.23;101968.28;5952794;29;20053;-91
2022/03/27 15:50:22;;;;;;;19.15;10.63;;;;;;;15.86;61.83;101962.25;5951644;29;20059;-92
2022/03/27 15:53:27;;;;;;;12.70;7.82;;;;;;;15.66;62.35;101963.75;5951143;29;20073;-91
2022/03/27 15:56:29;;;;;;;12.35;8.20;;;;;;;15.55;62.76;101971.59;5959311;29;20409;-90
2022/03/27 15:59:31;;;;;;;11.43;7.60;;;;;;;15.45;64.49;101957.59;5940223;29;20084;-91
2022/03/27 16:02:32;;;;;;;12.55;7.53;;;;;;;15.63;61.98;101956.19;5964664;29;20035;-91
2022/03/27 16:05:36;;;;;;;11.05;7.35;;;;;;;15.47;62.61;101951.28;5958176;29;20043;-91
2022/03/27 16:08:41;;;;;;;11.32;7.10;;;;;;;15.47;62.12;101955.69;5960571;29;20049;-91
2022/03/27 16:11:42;;;;;;;12.68;7.15;;;;;;;15.40;62.43;101955.34;5959155;29;20072;-92
2022/03/27 16:14:46;;;;;;;10.32;6.78;;;;;;;15.25;62.90;101953.88;5949949;29;20874;-92
2022/03/27 16:17:51;;;;;;;10.90;6.13;;;;;;;15.20;62.90;101948.19;5954637;29;20047;-91
2022/03/27 16:20:52;;;;;;;11.93;7.05;;;;;;;15.08;63.44;101952.56;5955349;29;20058;-92
2022/03/27 16:23:55;;;;;;;11.23;7.13;;;;;;;14.98;64.22;101947.22;5953131;29;20347;-92
2022/03/27 16:56:01;;;;;;;10.95;6.25;;;;;;;14.05;66.53;101928.78;6912963;23;20066;-92
2022/03/27 16:59:08;;;;;;;22.23;15.35;;;;;;;13.97;66.01;101918.09;5972383;29;20087;-92
2022/03/27 17:02:10;;;;;;;10.18;6.60;;;;;;;13.72;68.31;101912.00;6004119;29;20047;-93
2022/03/27 17:05:15;;;;;;;16.80;10.40;;;;;;;13.65;67.92;101915.97;5989320;29;20031;-92
2022/03/27 17:08:19;;;;;;;12.32;7.00;;;;;;;13.47;70.52;101907.69;5981440;29;20039;-92
2022/03/27 17:11:21;;;;;;;14.02;8.00;;;;;;;13.41;71.06;101915.88;5976604;29;20514;-92
2022/03/27 17:14:24;;;;;;;12.02;7.53;;;;;;;13.26;70.93;101901.31;5969430;29;20423;-91
2022/03/27 17:17:27;;;;;;;12.50;6.85;;;;;;;12.95;73.46;101908.59;5958601;29;20047;-91
2022/03/27 17:20:29;;;;;;;16.15;6.95;;;;;;;12.78;74.46;101903.69;5973097;29;20057;-91
2022/03/27 17:23:30;;;;;;;12.75;7.05;;;;;;;12.69;72.99;101899.91;5963446;29;20048;-91
2022/03/27 17:26:33;;;;;;;11.35;6.45;;;;;;;12.37;76.02;101905.44;5952867;29;20096;-91
2022/03/27 17:29:35;;;;;;;11.75;6.75;;;;;;;12.16;76.84;101902.44;5965276;29;20484;-91
2022/03/27 17:32:37;;;;;;;17.15;7.70;;;;;;;12.08;77.74;101902.13;5958489;29;20074;-91
2022/03/27 17:35:41;;;;;;;13.75;7.72;;;;;;;11.92;78.93;101901.41;5958344;29;20047;-91
2022/03/27 17:38:44;;;;;;;14.77;7.63;;;;;;;11.66;81.07;101900.41;5957485;29;20043;-92
2022/03/27 17:41:46;;;;;;;13.60;7.50;;;;;;;11.40;84.03;101902.81;5955713;29;20046;-91
2022/03/27 17:44:52;;;;;;;14.27;7.88;;;;;;;11.19;85.35;101904.94;5955440;29;20046;-91
2022/03/27 17:47:54;;;;;;;15.35;8.68;;;;;;;11.04;86.83;101903.25;5955745;29;20228;-91
2022/03/27 17:50:56;;;;;;;15.18;8.23;;;;;;;10.91;88.07;101903.97;5939678;29;20200;-91
2022/03/27 17:53:58;;;;;;;13.23;7.47;;;;;;;10.87;89.31;101904.22;5958401;29;20042;-91
2022/03/27 17:57:02;;;;;;;15.82;6.75;;;;;;;10.78;89.17;101903.84;5958670;29;20050;-91
2022/03/27 18:00:06;;;;;;;14.88;7.28;;;;;;;10.62;90.64;101910.00;5958062;29;20108;-93
2022/03/27 18:03:08;;;;;;;12.82;6.60;;;;;;;10.45;92.06;101900.59;5958331;29;20097;-93
2022/03/27 18:06:10;;;;;;;12.68;7.45;;;;;;;10.34;94.25;101908.97;5958643;29;20050;-93
2022/03/27 18:09:12;;;;;;;13.60;7.07;;;;;;;10.28;94.15;101909.28;5959807;29;20385;-93
2022/03/27 18:12:14;;;;;;;13.40;7.65;;;;;;;10.07;96.39;101911.28;5959496;29;20058;-93
2022/03/27 18:15:16;;;;;;;15.30;7.57;;;;;;;9.93;98.09;101907.66;5957301;29;20172;-94
2022/03/27 18:18:17;;;;;;;13.82;7.72;;;;;;;9.81;99.77;101916.13;5957994;29;20050;-93
2022/03/27 18:21:19;;;;;;;15.20;8.25;;;;;;;9.70;100.00;101915.84;5968168;29;20050;-94
2022/03/27 18:24:21;;;;;;;13.50;7.60;;;;;;;9.72;100.00;101916.59;5971365;29;20043;-93
2022/03/27 18:27:23;;;;;;;15.27;8.52;;;;;;;9.62;100.00;101913.66;5962064;29;20051;-93
2022/03/27 18:30:26;;;;;;;13.60;7.45;;;;;;;9.47;100.00;101917.88;5970005;29;20058;-93
2022/03/27 18:33:28;;;;;;;15.40;8.35;;;;;;;9.37;100.00;101928.78;5960999;29;20042;-94
2022/03/27 18:36:31;;;;;;;16.38;7.97;;;;;;;9.33;100.00;101932.44;5964929;29;20047;-94
2022/03/27 18:39:35;;;;;;;14.35;7.82;;;;;;;9.26;100.00;101930.13;5960901;29;20066;-93
2022/03/27 18:42:38;;;;;;;14.15;7.82;;;;;;;9.26;100.00;101932.72;5962886;29;20420;-93
2022/03/27 18:45:42;;;;;;;14.15;7.80;;;;;;;9.23;100.00;101937.22;5976441;29;20519;-93
2022/03/27 18:48:44;;;;;;;15.98;8.18;;;;;;;9.16;100.00;101930.69;5967726;29;20057;-93
2022/03/27 18:51:46;;;;;;;15.82;8.65;;;;;;;9.09;100.00;101939.66;5959300;29;20662;-93
2022/03/27 18:54:52;;;;;;;14.57;7.95;;;;;;;8.97;100.00;101930.78;5963135;29;20047;-93
2022/03/27 18:57:54;;;;;;;13.93;8.35;;;;;;;8.84;100.00;101930.53;5969165;29;20062;-94
2022/03/27 19:00:57;;;;;;;15.43;8.45;;;;;;;8.69;100.00;101929.53;5965766;29;20057;-93
2022/03/27 19:03:59;;;;;;;17.05;8.57;;;;;;;8.56;100.00;101931.03;5969846;29;20061;-93
2022/03/27 19:07:01;;;;;;;14.50;9.02;;;;;;;8.49;100.00;101925.34;5982834;29;20072;-93
2022/03/27 19:10:04;;;;;;;14.88;8.70;;;;;;;8.44;100.00;101919.56;5985064;29;20041;-93
2022/03/27 19:13:05;;;;;;;17.63;8.88;;;;;;;8.38;100.00;101928.41;5987520;29;20122;-93
2022/03/27 19:16:07;;;;;;;15.48;8.63;;;;;;;8.37;100.00;101931.91;5984358;29;20064;-94
2022/03/27 19:19:37;;;;;;;15.30;8.80;;;;;;;8.37;100.00;101933.63;5971567;29;20063;-93
2022/03/27 19:22:44;;;;;;;15.35;8.73;;;;;;;8.37;100.00;101931.91;5848434;30;20057;-93
2022/03/27 19:25:46;;;;;;;16.70;8.77;;;;;;;8.31;100.00;101929.59;5859625;30;20052;-93
2022/03/27 19:28:52;;;;;;;16.52;9.57;;;;;;;8.23;100.00;101934.28;5847524;30;21714;-93
2022/03/27 19:31:54;;;;;;;18.27;8.55;;;;;;;8.14;100.00;101940.69;5844268;30;20156;-93
2022/03/27 19:34:57;;;;;;;16.75;8.50;;;;;;;8.02;100.00;101925.78;5835409;30;20061;-93
2022/03/27 19:37:59;;;;;;;18.23;8.70;;;;;;;7.92;100.00;101930.50;5846495;30;20132;-93
2022/03/27 19:41:02;;;;;;;17.13;9.30;;;;;;;7.85;100.00;101929.13;5857022;30;20652;-93
2022/03/27 19:44:04;;;;;;;17.55;9.40;;;;;;;7.84;100.00;101926.63;5843925;30;20045;-93
2022/03/27 19:47:07;;;;;;;20.40;10.75;;;;;;;7.81;100.00;101930.16;5854002;30;20071;-93
2022/03/27 19:50:10;;;;;;;21.08;11.25;;;;;;;7.76;100.00;101932.94;5856639;30;20146;-93
2022/03/27 19:53:12;;;;;;;20.80;10.90;;;;;;;7.82;100.00;101933.56;5835827;30;20061;-93
2022/03/27 19:56:15;;;;;;;19.80;11.10;;;;;;;7.75;100.00;101928.72;5849294;30;20120;-93
2022/03/27 19:59:17;;;;;;;23.38;11.40;;;;;;;7.67;100.00;101928.19;5892756;29;20054;-91
2022/03/27 20:02:21;;;;;;;19.60;10.63;;;;;;;7.69;100.00;101917.84;5958200;29;20130;-91
2022/03/27 20:05:24;;;;;;;18.38;10.48;;;;;;;7.65;100.00;101922.28;5944836;29;20066;-90
2022/03/27 20:08:25;;;;;;;20.52;10.48;;;;;;;7.55;100.00;101924.44;5963243;29;20058;-91
2022/03/27 20:11:27;;;;;;;22.30;11.57;;;;;;;7.43;100.00;101932.69;5953729;29;20421;-90
2022/03/27 20:14:30;;;;;;;18.88;9.88;;;;;;;7.37;100.00;101925.22;5957470;29;20058;-90
2022/03/27 20:17:32;;;;;;;20.98;10.15;;;;;;;7.28;100.00;101917.91;5942695;29;21059;-91
2022/03/27 20:20:34;;;;;;;19.10;10.23;;;;;;;7.23;100.00;101925.81;5959714;29;20055;-90
2022/03/27 20:23:36;;;;;;;17.77;10.05;;;;;;;7.18;100.00;101914.88;5959279;29;20526;-90
2022/03/27 20:26:38;;;;;;;19.20;9.65;;;;;;;7.09;100.00;101912.69;5942591;29;20043;-91
2022/03/27 20:29:41;;;;;;;22.40;11.13;;;;;;;7.01;100.00;101909.59;5961638;29;20776;-91
2022/03/27 20:32:45;;;;;;;19.23;10.25;;;;;;;7.00;100.00;101918.22;5961077;29;20058;-91
2022/03/27 20:35:47;;;;;;;21.50;9.63;;;;;;;6.90;100.00;101908.28;5959365;29;20046;-90
2022/03/27 20:38:49;;;;;;;19.30;10.05;;;;;;;6.83;100.00;101911.19;5963486;29;20054;-90
2022/03/27 20:41:51;;;;;;;20.20;10.35;;;;;;;6.73;100.00;101909.88;5952780;29;20535;-90
2022/03/27 20:44:53;;;;;;;22.77;9.77;;;;;;;6.65;100.00;101908.44;5954045;29;20086;-90
2022/03/27 20:47:55;;;;;;;19.17;9.57;;;;;;;6.62;100.00;101902.59;5955260;29;20540;-90
2022/03/27 20:51:00;;;;;;;19.88;9.98;;;;;;;6.58;100.00;101895.91;5953508;29;20058;-91
2022/03/27 20:54:03;;;;;;;19.83;10.23;;;;;;;6.54;100.00;101897.78;5950981;29;20070;-90
2022/03/27 20:57:05;;;;;;;20.30;10.20;;;;;;;6.53;100.00;101906.38;5952482;29;20055;-90
2022/03/27 21:00:08;;;;;;;23.40;11.15;;;;;;;6.51;100.00;101899.59;5953745;29;20091;-91
2022/03/27 21:03:10;;;;;;;21.15;10.43;;;;;;;6.49;100.00;101907.41;5957771;29;20576;-91
2022/03/27 21:06:14;;;;;;;20.52;10.63;;;;;;;6.49;100.00;101906.56;5958626;29;20053;-91